Time;durP1;ratioP1;P1;durP2;ratioP2;P2;SDS_P1;SDS_P2;PMS_P1;PMS_P2;Temp;Humidity;BMP_temperature;BMP_pressure;BME280_temperature;BME280_humidity;BME280_pressure;Samples;Min_cycle;Max_cycle;Signal;HPM_P1;HPM_P2
2022/01/10 00:01:04;;;;;;;;;37.33;35.67;;;;;7.65;100.00;100332.41;6194171;22;45512;-81
2022/01/10 00:03:30;;;;;;;;;37.67;36.00;;;;;7.63;100.00;100334.13;6221513;22;45413;-82
2022/01/10 00:05:56;;;;;;;;;42.67;37.00;;;;;7.65;100.00;100347.41;6223072;22;45685;-81
2022/01/10 00:08:21;;;;;;;;;36.33;34.00;;;;;7.66;100.00;100352.72;6195177;22;46223;-81
2022/01/10 00:10:54;;;;;;;;;30.00;29.00;;;;;7.68;100.00;100351.00;6195431;22;45629;-81
2022/01/10 00:13:19;;;;;;;;;48.00;40.00;;;;;7.68;100.00;100345.72;6222556;22;45706;-81
2022/01/10 00:15:46;;;;;;;;;40.33;38.33;;;;;7.74;100.00;100353.75;6218141;22;45666;-81
2022/01/10 00:18:11;;;;;;;;;43.00;38.00;;;;;7.71;100.00;100369.56;6222475;22;45486;-81
2022/01/10 00:20:37;;;;;;;;;38.67;34.67;;;;;7.72;100.00;100379.31;6193835;22;45435;-81
2022/01/10 00:23:04;;;;;;;;;27.33;27.33;;;;;7.76;100.00;100388.22;6192331;22;45414;-81
2022/01/10 00:25:36;;;;;;;;;30.33;30.00;;;;;7.84;100.00;100383.03;6192524;22;46903;-81
2022/01/10 00:28:01;;;;;;;;;28.33;27.33;;;;;7.82;100.00;100383.03;6192641;22;45324;-82
2022/01/10 00:30:27;;;;;;;;;31.00;30.00;;;;;7.86;100.00;100376.03;6192875;22;44810;-81
2022/01/10 00:32:52;;;;;;;;;34.00;33.67;;;;;7.90;100.00;100376.13;6222122;22;45255;-81
2022/01/10 00:35:18;;;;;;;;;31.67;29.00;;;;;7.95;100.00;100386.81;6195605;22;48425;-81
2022/01/10 00:37:46;;;;;;;;;32.33;27.33;;;;;8.02;100.00;100388.72;6224373;22;45232;-82
2022/01/10 00:40:14;;;;;;;;;33.00;32.00;;;;;8.00;100.00;100380.75;6197858;22;44787;-81
2022/01/10 00:42:40;;;;;;;;;35.00;30.67;;;;;8.02;100.00;100388.72;6223787;22;45528;-81
2022/01/10 00:45:17;;;;;;;;;34.33;31.33;;;;;7.95;100.00;100390.34;6223214;22;45704;-81
2022/01/10 00:47:43;;;;;;;;;32.67;30.33;;;;;7.96;100.00;100384.19;6223358;22;45377;-81
2022/01/10 00:50:09;;;;;;;;;35.00;32.00;;;;;7.99;100.00;100391.28;6196844;22;45335;-81
2022/01/10 00:52:34;;;;;;;;;35.33;31.33;;;;;7.97;100.00;100393.91;6222169;22;45311;-81
2022/01/10 00:55:00;;;;;;;;;34.33;30.00;;;;;7.96;100.00;100401.84;6196794;22;48134;-81
2022/01/10 00:57:25;;;;;;;;;34.67;31.67;;;;;7.97;100.00;100399.19;6195399;22;45331;-81
2022/01/10 00:59:50;;;;;;;;;39.00;32.33;;;;;7.94;100.00;100383.28;6196107;22;45395;-82
2022/01/10 01:02:16;;;;;;;;;35.67;33.67;;;;;7.99;100.00;100392.19;6195243;22;45531;-80
2022/01/10 01:04:41;;;;;;;;;36.33;33.67;;;;;8.06;100.00;100401.16;6193497;22;48060;-82
2022/01/10 01:07:07;;;;;;;;;40.00;35.33;;;;;8.00;100.00;100396.63;6194200;22;45434;-82
2022/01/10 01:09:33;;;;;;;;;41.67;35.00;;;;;8.04;100.00;100400.22;6194570;22;45346;-82
2022/01/10 01:15:18;;;;;;;;;55.50;45.75;;;;;8.08;100.00;100425.91;6220704;22;45968;-82
2022/01/10 01:17:34;;;;;;;;;47.33;40.00;;;;;8.04;100.00;100432.00;6216675;22;45341;-82
2022/01/10 01:25:13;;;;;;;;;38.00;37.00;;;;;8.11;100.00;100448.91;6219334;22;45438;-81
2022/01/10 01:27:40;;;;;;;;;34.00;33.00;;;;;8.07;100.00;100447.06;6220686;22;45334;-81
2022/01/10 01:30:09;;;;;;;;;42.00;37.33;;;;;8.09;100.00;100451.50;6192042;22;44929;-81
2022/01/10 01:32:35;;;;;;;;;36.00;36.00;;;;;8.03;100.00;100451.41;6193749;22;45384;-81
2022/01/10 01:35:07;;;;;;;;;41.33;36.33;;;;;8.02;100.00;100449.63;6192533;22;46610;-81
2022/01/10 01:37:35;;;;;;;;;37.67;34.67;;;;;8.00;100.00;100454.00;6219030;22;45379;-81
2022/01/10 01:40:00;;;;;;;;;35.33;32.00;;;;;8.01;100.00;100461.06;6193128;22;45433;-81
2022/01/10 01:42:35;;;;;;;;;28.00;28.00;;;;;7.99;100.00;100470.75;6194404;22;45404;-81
2022/01/10 01:45:07;;;;;;;;;35.33;33.33;;;;;7.99;100.00;100476.03;6220776;22;45620;-81
2022/01/10 01:47:33;;;;;;;;;32.67;31.33;;;;;7.87;100.00;100478.44;6219982;22;45294;-81
2022/01/10 01:49:59;;;;;;;;;30.00;28.00;;;;;7.90;100.00;100487.34;6219910;22;45382;-81
2022/01/10 01:52:26;;;;;;;;;30.33;30.33;;;;;7.86;100.00;100485.50;6204418;22;45577;-81
2022/01/10 01:54:52;;;;;;;;;36.67;31.00;;;;;7.80;100.00;100488.91;6216242;22;46819;-80
2022/01/10 01:57:18;;;;;;;;;33.00;33.00;;;;;7.81;100.00;100501.25;6218552;22;45370;-80
2022/01/10 01:59:43;;;;;;;;;30.33;28.67;;;;;7.74;100.00;100496.72;6219445;22;45783;-80
2022/01/10 02:02:09;;;;;;;;;28.33;23.00;;;;;7.78;100.00;100498.56;6215318;22;45711;-80
2022/01/10 02:04:34;;;;;;;;;30.33;28.33;;;;;7.76;100.00;100504.69;6216671;22;45921;-80
2022/01/10 02:07:00;;;;;;;;;34.00;31.33;;;;;7.68;100.00;100496.56;6215891;22;45732;-79
2022/01/10 02:09:25;;;;;;;;;34.00;27.00;;;;;7.72;100.00;100509.03;6216727;22;45501;-79
2022/01/10 02:11:51;;;;;;;;;22.33;20.67;;;;;7.70;100.00;100508.09;6215866;22;45702;-80
2022/01/10 02:14:18;;;;;;;;;26.00;25.33;;;;;7.69;100.00;100503.63;6217961;22;45441;-79
2022/01/10 02:16:52;;;;;;;;;25.67;25.33;;;;;7.66;100.00;100510.66;6218111;22;45621;-80
2022/01/10 02:19:17;;;;;;;;;25.00;21.00;;;;;7.65;100.00;100517.66;6216821;22;45404;-79
2022/01/10 02:21:42;;;;;;;;;30.00;29.00;;;;;7.63;100.00;100522.03;6216291;22;45737;-80
2022/01/10 02:24:10;;;;;;;;;29.00;27.33;;;;;7.72;100.00;100524.91;6215676;22;45378;-80
2022/01/10 02:26:37;;;;;;;;;30.67;25.67;;;;;7.63;100.00;100514.09;6188857;22;45344;-80
2022/01/10 02:29:04;;;;;;;;;33.00;27.00;;;;;7.68;100.00;100536.28;6215985;22;45435;-80
2022/01/10 02:31:34;;;;;;;;;22.00;22.00;;;;;7.67;100.00;100523.88;6213596;22;45404;-80
2022/01/10 02:33:59;;;;;;;;;28.67;25.33;;;;;7.67;100.00;100521.25;6215653;22;48212;-80
2022/01/10 02:36:26;;;;;;;;;34.00;28.33;;;;;7.71;100.00;100524.84;6216553;22;45621;-79
2022/01/10 02:38:57;;;;;;;;;33.00;31.33;;;;;7.74;100.00;100520.53;6216002;22;45379;-80
2022/01/10 02:41:28;;;;;;;;;29.67;26.33;;;;;7.71;100.00;100517.81;6215290;22;45325;-80
2022/01/10 02:43:55;;;;;;;;;29.00;29.00;;;;;7.69;100.00;100534.53;6216985;22;45486;-80
2022/01/10 02:46:21;;;;;;;;;35.33;34.00;;;;;7.67;100.00;100530.94;6214922;22;44842;-80
2022/01/10 02:48:48;;;;;;;;;33.67;30.67;;;;;7.67;100.00;100542.41;6218824;22;45666;-79
2022/01/10 02:51:13;;;;;;;;;32.33;30.33;;;;;7.64;100.00;100537.06;6214148;22;45716;-80
2022/01/10 02:53:39;;;;;;;;;32.67;29.67;;;;;7.65;100.00;100548.53;6189759;22;47290;-80
2022/01/10 02:56:05;;;;;;;;;29.67;29.33;;;;;7.66;100.00;100555.66;6189184;22;45275;-80
2022/01/10 02:58:30;;;;;;;;;33.33;29.67;;;;;7.64;100.00;100563.53;6217358;22;44772;-81
2022/01/10 03:00:58;;;;;;;;;34.33;30.33;;;;;7.66;100.00;100572.41;6189918;22;45699;-80
2022/01/10 03:03:26;;;;;;;;;34.33;30.00;;;;;7.63;100.00;100574.09;6219497;22;45320;-80
2022/01/10 03:05:52;;;;;;;;;30.67;28.67;;;;;7.58;100.00;100564.28;6222001;22;45564;-80
2022/01/10 03:08:18;;;;;;;;;28.67;27.33;;;;;7.58;100.00;100563.41;6220885;22;45408;-80
2022/01/10 03:10:43;;;;;;;;;33.33;31.00;;;;;7.53;100.00;100562.38;6193831;22;45627;-79
2022/01/10 03:13:10;;;;;;;;;25.67;25.67;;;;;7.60;100.00;100572.28;6193690;22;46756;-80
2022/01/10 03:15:35;;;;;;;;;33.33;33.33;;;;;7.54;100.00;100567.72;6193819;22;45750;-80
2022/01/10 03:18:01;;;;;;;;;33.00;32.00;;;;;7.49;100.00;100564.06;6218776;22;45350;-80
2022/01/10 03:20:26;;;;;;;;;33.33;31.67;;;;;7.53;100.00;100578.25;6216831;22;45331;-80
2022/01/10 03:22:53;;;;;;;;;42.00;38.33;;;;;7.54;100.00;100583.59;6217321;22;45423;-81
2022/01/10 03:25:20;;;;;;;;;30.00;30.00;;;;;7.58;100.00;100576.63;6188642;22;45673;-81
2022/01/10 03:27:46;;;;;;;;;36.33;33.67;;;;;7.53;100.00;100588.84;6189968;22;45675;-80
2022/01/10 03:30:12;;;;;;;;;39.33;36.67;;;;;7.50;100.00;100592.31;6214477;22;45284;-81
2022/01/10 03:32:38;;;;;;;;;38.33;36.67;;;;;7.49;100.00;100589.63;6215525;22;46001;-79
2022/01/10 03:35:05;;;;;;;;;33.33;33.00;;;;;7.54;100.00;100603.88;6188210;22;45746;-80
2022/01/10 03:37:31;;;;;;;;;31.67;28.33;;;;;7.41;100.00;100600.94;6215822;22;45598;-80
2022/01/10 03:39:56;;;;;;;;;35.00;31.67;;;;;7.35;100.00;100592.84;6189324;22;45595;-80
2022/01/10 03:42:22;;;;;;;;;34.00;30.00;;;;;7.39;100.00;100613.25;6187755;22;47140;-80
2022/01/10 03:44:47;;;;;;;;;42.00;34.33;;;;;7.41;100.00;100616.81;6188753;22;45488;-79
2022/01/10 03:47:16;;;;;;;;;34.67;30.33;;;;;7.43;100.00;100615.94;6188961;22;45370;-80
2022/01/10 03:49:42;;;;;;;;;36.00;34.00;;;;;7.45;100.00;100631.00;6189835;22;45391;-80
2022/01/10 03:52:07;;;;;;;;;33.67;32.67;;;;;7.39;100.00;100621.19;6216576;22;45351;-79
2022/01/10 03:54:33;;;;;;;;;41.00;36.33;;;;;7.41;100.00;100615.91;6190763;22;45350;-80
2022/01/10 03:56:59;;;;;;;;;32.00;28.67;;;;;7.40;100.00;100622.94;6218418;22;45362;-80
2022/01/10 03:59:26;;;;;;;;;36.33;32.33;;;;;7.38;100.00;100614.06;6191888;22;45842;-80
2022/01/10 04:01:52;;;;;;;;;37.33;34.00;;;;;7.37;100.00;100633.47;6218577;22;45616;-80
2022/01/10 04:04:18;;;;;;;;;34.00;30.67;;;;;7.40;100.00;100636.19;6189816;22;45467;-79
2022/01/10 04:06:44;;;;;;;;;42.00;33.33;;;;;7.38;100.00;100639.66;6189821;22;45386;-80
2022/01/10 04:09:09;;;;;;;;;35.33;33.67;;;;;7.32;100.00;100648.31;6189145;22;45548;-80
2022/01/10 04:11:36;;;;;;;;;36.67;33.33;;;;;7.32;100.00;100650.97;6215286;22;45322;-80
2022/01/10 04:14:02;;;;;;;;;33.67;31.33;;;;;7.32;100.00;100658.00;6215707;22;45770;-80
2022/01/10 04:16:27;;;;;;;;;40.33;34.67;;;;;7.22;100.00;100638.34;6187531;22;45419;-80
2022/01/10 04:18:53;;;;;;;;;37.00;33.67;;;;;7.22;100.00;100643.66;6188226;22;45355;-80
2022/01/10 04:21:18;;;;;;;;;41.67;34.67;;;;;7.24;100.00;100660.44;6187943;22;47009;-80
2022/01/10 04:23:43;;;;;;;;;34.00;32.33;;;;;7.21;100.00;100652.41;6187347;22;45655;-81
2022/01/10 04:26:09;;;;;;;;;35.33;33.00;;;;;7.24;100.00;100660.44;6188588;22;45666;-81
2022/01/10 04:28:34;;;;;;;;;37.00;34.00;;;;;7.16;100.00;100654.06;6188407;22;45286;-80
2022/01/10 04:31:00;;;;;;;;;34.67;31.00;;;;;7.06;100.00;100644.09;6214696;22;45710;-80
2022/01/10 04:33:29;;;;;;;;;33.33;33.00;;;;;7.04;100.00;100661.69;6188362;22;45383;-80
2022/01/10 04:35:58;;;;;;;;;38.00;34.33;;;;;7.09;100.00;100679.47;6190707;22;45389;-80
2022/01/10 04:38:24;;;;;;;;;38.67;33.33;;;;;6.98;100.00;100678.25;6190294;22;45424;-80
2022/01/10 04:40:50;;;;;;;;;35.33;31.33;;;;;6.98;100.00;100692.38;6215154;22;45484;-79
2022/01/10 04:43:16;;;;;;;;;39.33;37.33;;;;;6.97;100.00;100687.94;6190132;22;46133;-80
2022/01/10 04:45:42;;;;;;;;;39.33;37.33;;;;;6.91;100.00;100685.13;6193056;22;45612;-80
2022/01/10 04:48:08;;;;;;;;;45.00;40.00;;;;;6.90;100.00;100693.00;6221088;22;45496;-81
2022/01/10 04:53:00;;;;;;;;;52.50;42.00;;;;;6.90;100.00;100699.19;6215133;22;45415;-80
2022/01/10 04:55:25;;;;;;;;;51.00;42.00;;;;;6.91;100.00;100706.28;6188223;22;45354;-79
2022/01/10 04:57:51;;;;;;;;;46.75;41.00;;;;;6.87;100.00;100714.06;6216272;22;45830;-80
2022/01/10 05:00:18;;;;;;;;;48.00;42.25;;;;;6.82;100.00;100721.88;6216202;22;46456;-80
2022/01/10 05:02:46;;;;;;;;;50.25;41.75;;;;;6.73;100.00;100717.22;6216806;22;45286;-80
2022/01/10 05:05:11;;;;;;;;;45.00;39.67;;;;;6.64;100.00;100716.06;6192542;22;45663;-79
2022/01/10 05:07:37;;;;;;;;;45.00;40.00;;;;;6.67;100.00;100732.00;6219996;22;45783;-79
2022/01/10 05:10:03;;;;;;;;;41.50;39.75;;;;;6.64;100.00;100732.78;6190009;22;48184;-79
2022/01/10 05:12:30;;;;;;;;;51.50;44.00;;;;;6.59;100.00;100743.25;6217309;22;45862;-80
2022/01/10 05:14:55;;;;;;;;;48.75;42.00;;;;;6.50;100.00;100737.66;6218599;22;45386;-80
2022/01/10 05:17:22;;;;;;;;;60.00;46.75;;;;;6.51;100.00;100751.78;6192558;22;45393;-80
2022/01/10 05:19:48;;;;;;;;;55.00;47.75;;;;;6.48;100.00;100751.69;6191466;22;46666;-80
2022/01/10 05:22:13;;;;;;;;;55.50;44.75;;;;;6.48;100.00;100752.56;6189100;22;45279;-80
2022/01/10 05:24:39;;;;;;;;;59.25;50.25;;;;;6.47;100.00;100749.91;6216701;22;45330;-80
2022/01/10 05:27:04;;;;;;;;;50.75;42.50;;;;;6.48;100.00;100763.13;6216869;22;45369;-80
2022/01/10 05:29:30;;;;;;;;;48.00;41.25;;;;;6.47;100.00;100764.00;6215994;22;46043;-79
2022/01/10 05:31:56;;;;;;;;;54.75;44.00;;;;;6.52;100.00;100772.94;6189001;22;45306;-79
2022/01/10 05:34:22;;;;;;;;;54.75;46.75;;;;;6.49;100.00;100772.88;6216179;22;45362;-79
2022/01/10 05:36:47;;;;;;;;;50.75;43.75;;;;;6.29;100.00;100744.94;6189370;22;45386;-79
2022/01/10 05:39:12;;;;;;;;;52.75;45.00;;;;;6.45;100.00;100772.75;6215708;22;45758;-81
2022/01/10 05:41:38;;;;;;;;;53.25;45.00;;;;;6.49;100.00;100788.72;6189083;22;45664;-80
2022/01/10 05:44:04;;;;;;;;;59.00;46.25;;;;;6.44;100.00;100782.38;6188324;22;45737;-80
2022/01/10 05:46:31;;;;;;;;;51.25;44.50;;;;;6.40;100.00;100772.56;6215863;22;45480;-80
2022/01/10 05:49:01;;;;;;;;;60.00;49.25;;;;;6.45;100.00;100788.59;6188583;22;46696;-80
2022/01/10 05:51:29;;;;;;;;;51.50;44.25;;;;;6.43;100.00;100798.22;6191034;22;45378;-79
2022/01/10 05:53:55;;;;;;;;;56.75;46.50;;;;;6.39;100.00;100794.56;6216774;22;45433;-80
2022/01/10 05:56:21;;;;;;;;;54.25;44.75;;;;;6.41;100.00;100806.97;6190366;22;45468;-80
2022/01/10 05:58:46;;;;;;;;;52.00;45.00;;;;;6.45;100.00;100815.00;6190783;22;47040;-79
2022/01/10 06:01:18;;;;;;;;;51.25;42.25;;;;;6.47;100.00;100824.78;6217813;22;45465;-80
2022/01/10 06:03:51;;;;;;;;;52.00;45.50;;;;;6.40;100.00;100822.75;6165917;22;45422;-79
2022/01/10 06:06:16;;;;;;;;;46.75;42.75;;;;;6.35;100.00;100819.09;6190582;22;45328;-80
2022/01/10 06:08:41;;;;;;;;;50.25;43.75;;;;;6.40;100.00;100826.31;6218464;22;45303;-79
2022/01/10 06:11:07;;;;;;;;;55.75;45.25;;;;;6.36;100.00;100831.44;6190470;22;45609;-79
2022/01/10 06:13:33;;;;;;;;;58.75;49.00;;;;;6.43;100.00;100849.28;6188616;22;45548;-79
2022/01/10 06:15:59;;;;;;;;;56.25;46.25;;;;;6.36;100.00;100848.22;6217281;22;45770;-79
2022/01/10 06:18:24;;;;;;;;;59.00;48.50;;;;;6.32;100.00;100850.69;6192011;22;46905;-81
2022/01/10 06:20:50;;;;;;;;;55.50;49.00;;;;;6.27;100.00;100844.34;6191423;22;45307;-81
2022/01/10 06:23:16;;;;;;;;;50.00;44.25;;;;;6.31;100.00;100849.78;6217549;22;45440;-81
2022/01/10 06:25:43;;;;;;;;;58.00;49.50;;;;;6.32;100.00;100850.69;6189990;22;45329;-81
2022/01/10 06:28:08;;;;;;;;;53.50;46.25;;;;;6.30;100.00;100857.66;6189110;22;47226;-81
2022/01/10 06:30:34;;;;;;;;;50.25;45.00;;;;;6.33;100.00;100865.69;6190244;22;45754;-81
2022/01/10 06:33:00;;;;;;;;;58.00;49.00;;;;;6.31;100.00;100863.00;6189513;22;45728;-81
2022/01/10 06:35:25;;;;;;;;;61.00;50.50;;;;;6.31;100.00;100886.75;6190591;22;45599;-80
2022/01/10 06:37:52;;;;;;;;;63.00;51.75;;;;;6.28;100.00;100886.69;6189584;22;47304;-79
2022/01/10 06:40:17;;;;;;;;;66.75;53.50;;;;;6.25;100.00;100881.28;6188105;22;45797;-80
2022/01/10 06:42:43;;;;;;;;;59.25;48.25;;;;;6.30;100.00;100894.63;6215608;22;45471;-80
2022/01/10 06:45:10;;;;;;;;;65.25;51.75;;;;;6.27;100.00;100889.25;6188584;22;45682;-79
2022/01/10 06:47:36;;;;;;;;;58.50;48.50;;;;;6.19;100.00;100875.78;6189313;22;46482;-79
2022/01/10 06:50:04;;;;;;;;;60.25;50.25;;;;;6.37;100.00;100901.94;6189300;22;45734;-80
2022/01/10 06:52:31;;;;;;;;;59.00;50.25;;;;;6.39;100.00;100910.81;6197564;22;45573;-80
2022/01/10 06:54:57;;;;;;;;;70.50;50.75;;;;;6.44;100.00;100924.16;6216951;22;45359;-81
2022/01/10 06:57:22;;;;;;;;;61.00;51.00;;;;;6.46;100.00;100940.97;6216947;22;47020;-81
2022/01/10 06:59:48;;;;;;;;;59.00;48.00;;;;;6.50;100.00;100945.50;6216528;22;45481;-80
2022/01/10 07:02:13;;;;;;;;;68.00;54.25;;;;;6.50;100.00;100938.47;6217516;22;45913;-80
2022/01/10 07:04:39;;;;;;;;;67.75;56.00;;;;;6.55;100.00;100951.84;6216979;22;45507;-81
2022/01/10 07:07:05;;;;;;;;;65.25;54.75;;;;;6.61;100.00;100959.97;6216991;22;47133;-79
2022/01/10 07:09:31;;;;;;;;;68.00;56.25;;;;;6.63;100.00;100968.84;6217356;22;45434;-80
2022/01/10 07:15:19;;;;;;;;;66.00;53.75;;;;;6.65;100.00;100977.72;6218286;22;45805;-80
2022/01/10 07:17:44;;;;;;;;;71.75;54.75;;;;;6.70;100.00;100993.75;6217926;22;47351;-80
2022/01/10 07:20:10;;;;;;;;;68.25;56.75;;;;;6.71;100.00;100990.25;6219185;22;45344;-81
2022/01/10 07:22:36;;;;;;;;;70.50;56.50;;;;;6.70;100.00;100996.38;6219640;22;45419;-80
2022/01/10 07:25:02;;;;;;;;;66.00;54.25;;;;;6.79;100.00;101017.84;6218195;22;45401;-79
2022/01/10 07:27:27;;;;;;;;;64.75;55.50;;;;;6.74;100.00;101008.84;6214994;22;48064;-80
2022/01/10 07:29:53;;;;;;;;;73.25;58.00;;;;;6.77;100.00;101022.19;6216624;22;48954;-81
2022/01/10 07:32:20;;;;;;;;;70.25;55.25;;;;;6.79;100.00;101031.97;6217226;22;45356;-80
2022/01/10 07:34:51;;;;;;;;;64.50;53.75;;;;;6.69;100.00;101019.28;6220302;22;45361;-84
2022/01/10 07:37:18;;;;;;;;;64.75;50.75;;;;;6.56;100.00;101025.91;6216596;22;46986;-81
2022/01/10 07:39:43;;;;;;;;;65.00;53.25;;;;;6.50;100.00;101030.94;6215329;22;45691;-80
2022/01/10 07:42:09;;;;;;;;;58.25;46.75;;;;;6.57;100.00;101050.56;6218141;22;45642;-81
2022/01/10 07:44:36;;;;;;;;;62.00;50.25;;;;;6.55;100.00;101055.78;6218616;22;45334;-80
2022/01/10 07:47:02;;;;;;;;;50.50;44.25;;;;;6.53;100.00;101072.44;6213966;22;47206;-79
2022/01/10 07:49:28;;;;;;;;;55.00;44.50;;;;;6.48;100.00;101068.72;6214763;22;45498;-80
2022/01/10 07:51:57;;;;;;;;;59.25;47.75;;;;;6.51;100.00;101076.78;6215739;22;45778;-81
2022/01/10 07:54:23;;;;;;;;;58.00;46.50;;;;;6.48;100.00;101080.19;6191697;22;45385;-80
2022/01/10 07:56:49;;;;;;;;;64.00;50.50;;;;;6.57;100.00;101096.38;6219716;22;46033;-81
2022/01/10 07:59:15;;;;;;;;;58.00;48.00;;;;;6.48;100.00;101096.03;6220451;22;45342;-81
2022/01/10 08:01:40;;;;;;;;;55.50;43.00;;;;;6.45;100.00;101105.63;6221357;22;45766;-81
2022/01/10 08:04:06;;;;;;;;;56.50;43.50;;;;;6.41;100.00;101115.16;6228143;22;45723;-82
2022/01/10 08:06:32;;;;;;;;;57.00;45.50;;;;;6.27;100.00;101100.56;6173274;22;47387;-81
2022/01/10 08:08:58;;;;;;;;;43.67;39.00;;;;;6.30;100.00;101120.06;6195255;22;44984;-82
2022/01/10 08:11:26;;;;;;;;;49.50;42.75;;;;;6.23;100.00;101119.78;6224638;22;45421;-82
2022/01/10 08:13:52;;;;;;;;;57.00;43.67;;;;;6.25;100.00;101137.47;6194486;22;45422;-82
2022/01/10 08:16:18;;;;;;;;;47.67;41.67;;;;;6.24;100.00;101126.84;6221137;22;45362;-82
2022/01/10 08:18:43;;;;;;;;;55.00;43.67;;;;;6.20;100.00;101121.47;6199132;22;45425;-80
2022/01/10 08:21:10;;;;;;;;;50.67;39.00;;;;;6.31;100.00;101129.78;6222382;22;45338;-81
2022/01/10 08:23:35;;;;;;;;;40.33;35.33;;;;;6.31;100.00;101142.09;6221673;22;44719;-81
2022/01/10 08:26:03;;;;;;;;;45.00;39.67;;;;;6.30;100.00;101143.84;6220881;22;45776;-82
2022/01/10 08:28:30;;;;;;;;;43.67;39.00;;;;;6.34;100.00;101145.75;6193834;22;45481;-82
2022/01/10 08:30:56;;;;;;;;;46.75;42.00;;;;;6.31;100.00;101150.00;6195962;22;45314;-83
2022/01/10 08:33:22;;;;;;;;;46.67;42.33;;;;;6.40;100.00;101160.91;6196179;22;45548;-82
2022/01/10 08:35:48;;;;;;;;;40.33;38.33;;;;;6.35;100.00;101162.50;6223975;22;45308;-81
2022/01/10 08:38:17;;;;;;;;;43.00;39.00;;;;;6.35;100.00;101167.78;6196367;22;45352;-82
2022/01/10 08:40:42;;;;;;;;;48.50;42.00;;;;;6.34;100.00;101163.31;6196130;22;44810;-81
2022/01/10 08:43:10;;;;;;;;;46.00;38.33;;;;;6.34;100.00;101176.53;6223473;22;45771;-82
2022/01/10 08:45:38;;;;;;;;;50.00;41.67;;;;;6.31;100.00;101173.78;6195662;22;47293;-82
2022/01/10 08:48:05;;;;;;;;;45.33;40.33;;;;;6.28;100.00;101177.22;6222768;22;45335;-83
2022/01/10 08:50:33;;;;;;;;;54.75;43.25;;;;;6.28;100.00;101184.22;6171106;22;45357;-82
2022/01/10 08:52:59;;;;;;;;;45.67;38.67;;;;;6.21;100.00;101191.91;6207750;22;45883;-82
2022/01/10 08:55:25;;;;;;;;;46.00;39.67;;;;;6.28;100.00;101201.00;6223827;22;45059;-82
2022/01/10 09:01:13;;;;;;;;;46.00;41.00;;;;;6.30;100.00;101208.94;6224518;22;45633;-83
2022/01/10 09:03:39;;;;;;;;;37.00;31.67;;;;;6.30;100.00;101209.88;6225915;22;45000;-82
2022/01/10 09:06:14;;;;;;;;;55.33;42.00;;;;;6.37;100.00;101213.66;6196941;22;46780;-84
2022/01/10 09:08:43;;;;;;;;;53.00;43.00;;;;;6.40;100.00;101219.03;6189566;22;45457;-82
2022/01/10 09:11:10;;;;;;;;;48.00;41.33;;;;;6.38;100.00;101242.78;6198352;22;45092;-82
2022/01/10 09:13:36;;;;;;;;;39.00;38.67;;;;;6.37;100.00;101245.34;6221750;22;44731;-82
2022/01/10 09:16:02;;;;;;;;;50.75;43.00;;;;;6.19;100.00;101235.84;6223774;22;45417;-82
2022/01/10 09:18:28;;;;;;;;;42.33;39.33;;;;;6.19;100.00;101234.94;6222197;22;45477;-84
2022/01/10 09:20:55;;;;;;;;;36.67;34.67;;;;;6.23;100.00;101258.00;6224383;22;45392;-82
2022/01/10 09:23:22;;;;;;;;;42.67;33.00;;;;;6.28;100.00;101267.03;6226510;22;45437;-82
2022/01/10 09:25:49;;;;;;;;;49.33;42.33;;;;;6.28;100.00;101274.94;6199927;22;48703;-82
2022/01/10 09:28:16;;;;;;;;;41.67;38.00;;;;;6.29;100.00;101275.84;6226545;22;45597;-81
2022/01/10 09:30:41;;;;;;;;;30.67;28.67;;;;;6.28;100.00;101272.31;6201518;22;45293;-81
2022/01/10 09:33:07;;;;;;;;;42.67;38.67;;;;;6.24;100.00;101258.91;6226851;22;45707;-84
2022/01/10 09:36:10;;;;;;;;;43.33;40.33;;;;;6.37;100.00;101283.22;6224435;22;47296;-83
2022/01/10 09:38:40;;;;;;;;;47.67;38.00;;;;;6.32;100.00;101278.59;6225725;22;45647;-83
2022/01/10 09:41:08;;;;;;;;;39.33;34.33;;;;;6.32;100.00;101278.59;6225451;22;45456;-83
2022/01/10 09:43:35;;;;;;;;;39.33;35.00;;;;;6.40;100.00;101280.72;6227935;22;45228;-85
2022/01/10 09:46:00;;;;;;;;;42.00;39.00;;;;;6.39;100.00;101289.47;6228587;22;45237;-83
2022/01/10 09:48:27;;;;;;;;;40.67;35.67;;;;;6.49;100.00;101281.91;6224071;22;44856;-83
2022/01/10 09:50:53;;;;;;;;;37.00;32.00;;;;;6.43;100.00;101292.25;6225990;22;44975;-83
2022/01/10 09:53:24;;;;;;;;;46.33;38.33;;;;;6.45;100.00;101307.31;6221685;22;45470;-83
2022/01/10 09:55:50;;;;;;;;;48.00;35.67;;;;;6.35;100.00;101306.03;6226102;22;46113;-82
2022/01/10 09:58:15;;;;;;;;;36.00;30.67;;;;;6.27;100.00;101311.88;6222871;22;45312;-83
2022/01/10 10:00:41;;;;;;;;;40.00;33.67;;;;;6.39;100.00;101328.22;6226046;22;45388;-82
2022/01/10 10:03:08;;;;;;;;;45.33;36.67;;;;;6.44;100.00;101329.28;6224409;22;45411;-82
2022/01/10 10:05:34;;;;;;;;;39.67;36.67;;;;;6.44;100.00;101341.59;6197566;22;47090;-81
2022/01/10 10:08:00;;;;;;;;;36.33;31.00;;;;;6.43;100.00;101348.63;6226976;22;45317;-82
2022/01/10 10:10:29;;;;;;;;;39.33;35.00;;;;;6.47;100.00;101347.03;6224906;22;45681;-81
2022/01/10 10:12:55;;;;;;;;;40.00;36.33;;;;;6.46;100.00;101346.09;6225778;22;45104;-81
2022/01/10 10:15:30;;;;;;;;;35.00;31.33;;;;;6.53;100.00;101352.53;6223999;22;44960;-82
2022/01/10 10:18:08;;;;;;;;;36.67;30.33;;;;;6.58;100.00;101336.03;6226878;22;45285;-82
2022/01/10 10:20:34;;;;;;;;;38.33;36.67;;;;;6.61;100.00;101341.44;6227484;22;45375;-83
2022/01/10 10:23:05;;;;;;;;;45.67;35.67;;;;;6.53;100.00;101318.19;6223622;22;45370;-81
2022/01/10 10:26:08;;;;;;;;;29.33;27.00;;;;;6.73;100.00;101345.41;6221286;22;46927;-82
2022/01/10 10:28:37;;;;;;;;;33.33;31.67;;;;;6.72;100.00;101354.16;6223706;22;45325;-82
2022/01/10 10:31:10;;;;;;;;;40.00;35.00;;;;;6.68;100.00;101337.28;6223225;22;45409;-83
2022/01/10 10:33:45;;;;;;;;;39.67;31.00;;;;;6.68;100.00;101346.97;6223221;22;44753;-82
2022/01/10 10:36:10;;;;;;;;;32.33;30.33;;;;;6.79;100.00;101354.47;6224179;22;46840;-82
2022/01/10 10:38:37;;;;;;;;;36.33;34.00;;;;;6.97;100.00;101356.03;6224088;22;45247;-83
2022/01/10 10:41:05;;;;;;;;;37.33;32.67;;;;;6.91;100.00;101338.19;6227141;22;45398;-83
2022/01/10 10:43:37;;;;;;;;;31.00;29.33;;;;;6.88;100.00;101332.78;6223364;22;45374;-82
2022/01/10 10:46:11;;;;;;;;;31.00;28.33;;;;;6.85;100.00;101334.38;6225345;22;46690;-82
2022/01/10 10:48:39;;;;;;;;;35.00;28.67;;;;;7.00;100.00;101378.19;6222852;22;45773;-81
2022/01/10 10:51:06;;;;;;;;;26.67;26.67;;;;;7.10;100.00;101373.28;6226369;22;45344;-82
2022/01/10 10:53:32;;;;;;;;;39.00;33.00;;;;;6.93;100.00;101344.44;6219329;22;44904;-82
2022/01/10 10:56:01;;;;;;;;;31.33;30.67;;;;;7.05;100.00;101357.25;6221290;22;46983;-82
2022/01/10 10:58:27;;;;;;;;;37.33;33.00;;;;;6.90;100.00;101339.03;6221904;22;46111;-82
2022/01/10 11:00:56;;;;;;;;;37.00;29.67;;;;;7.07;100.00;101371.41;6222525;22;45656;-82
2022/01/10 11:03:31;;;;;;;;;31.33;29.33;;;;;6.91;100.00;101356.69;6225547;22;45392;-83
2022/01/10 11:05:59;;;;;;;;;35.00;33.33;;;;;6.87;100.00;101369.72;6225339;22;45089;-81
2022/01/10 11:09:35;;;;;;;;;35.67;31.33;;;;;7.00;100.00;101383.47;6222748;22;45299;-82
2022/01/10 11:12:56;;;;;;;;;36.33;34.33;;;;;6.95;100.00;101366.56;6223033;22;45335;-82
2022/01/10 11:15:23;;;;;;;;;30.00;30.00;;;;;6.75;100.00;101352.56;6222809;22;44860;-83
2022/01/10 11:17:55;;;;;;;;;38.33;35.00;;;;;6.94;100.00;101385.88;6224576;22;46069;-81
2022/01/10 11:20:24;;;;;;;;;36.67;32.67;;;;;6.86;100.00;101371.47;6223924;22;44938;-81
2022/01/10 11:22:54;;;;;;;;;42.67;34.33;;;;;6.88;100.00;101383.00;6224440;22;44729;-82
2022/01/10 11:25:35;;;;;;;;;31.00;28.67;;;;;6.93;100.00;101376.19;6224677;22;44942;-83
2022/01/10 11:28:06;;;;;;;;;38.00;31.00;;;;;6.94;100.00;101390.28;6225424;22;45413;-81